createdAt,value
2024-04-11T00:01:07.075Z,13.90
2024-04-11T00:03:09.193Z,13.90
2024-04-11T00:05:11.211Z,13.90
2024-04-11T00:07:13.131Z,13.90
2024-04-11T00:09:15.589Z,13.90
2024-04-11T00:11:19.854Z,13.90
2024-04-11T00:13:21.909Z,13.70
2024-04-11T00:15:23.844Z,13.70
2024-04-11T00:17:26.154Z,13.60
2024-04-11T00:19:28.129Z,13.60
2024-04-11T00:21:30.077Z,13.50
2024-04-11T00:23:32.019Z,13.40
2024-04-11T00:25:33.930Z,13.40
2024-04-11T00:27:35.846Z,13.30
2024-04-11T00:29:37.761Z,13.20
2024-04-11T00:31:40.071Z,13.20
2024-04-11T00:33:56.891Z,13.20
2024-04-11T00:36:01.316Z,13.10
2024-04-11T00:38:04.454Z,13.00
2024-04-11T00:40:07.014Z,13.00
2024-04-11T00:42:09.012Z,12.90
2024-04-11T00:44:10.991Z,12.90
2024-04-11T00:46:13.071Z,12.90
2024-04-11T00:48:18.950Z,12.90
2024-04-11T00:50:21.164Z,12.80
2024-04-11T00:52:23.654Z,12.80
2024-04-11T00:54:26.388Z,12.90
2024-04-11T00:56:28.797Z,12.90
2024-04-11T00:58:30.896Z,12.90
2024-04-11T01:00:33.798Z,12.80
2024-04-11T01:02:36.990Z,12.80
2024-04-11T01:04:39.670Z,12.80
2024-04-11T01:06:43.523Z,12.90
2024-04-11T01:08:47.653Z,12.90
2024-04-11T01:10:49.742Z,12.80
2024-04-11T01:12:52.866Z,12.80
2024-04-11T01:14:54.861Z,12.70
2024-04-11T01:16:56.952Z,12.70
2024-04-11T01:18:59.089Z,12.50
2024-04-11T01:21:01.207Z,12.40
2024-04-11T01:23:03.309Z,12.40
2024-04-11T01:25:05.352Z,12.30
2024-04-11T01:27:09.240Z,12.30
2024-04-11T01:29:12.129Z,12.30
2024-04-11T01:31:13.995Z,12.30
2024-04-11T01:33:16.363Z,12.20
2024-04-11T01:35:19.476Z,12.10
2024-04-11T01:37:21.440Z,12.30
2024-04-11T01:39:23.570Z,12.30
2024-04-11T01:41:25.566Z,12.40
2024-04-11T01:43:27.513Z,12.40
2024-04-11T01:45:29.414Z,12.30
2024-04-11T01:47:31.854Z,12.30
2024-04-11T01:49:34.317Z,12.30
2024-04-11T01:51:36.661Z,12.30
2024-04-11T01:53:38.962Z,12.30
2024-04-11T01:55:40.890Z,12.30
2024-04-11T01:57:43.906Z,12.30
2024-04-11T01:59:45.894Z,12.20
2024-04-11T02:01:47.870Z,12.10
2024-04-11T02:03:50.003Z,12.10
2024-04-11T02:05:53.250Z,12.10
2024-04-11T02:07:55.565Z,12.10
2024-04-11T02:09:57.762Z,12.20
2024-04-11T02:11:59.837Z,12.20
2024-04-11T02:14:02.435Z,12.20
2024-04-11T02:16:05.465Z,12.30
2024-04-11T02:18:08.850Z,12.20
2024-04-11T02:20:14.784Z,12.20
2024-04-11T02:22:19.036Z,12.20
2024-04-11T02:24:23.767Z,12.20
2024-04-11T02:26:26.472Z,12.20
2024-04-11T02:28:28.481Z,12.20
2024-04-11T02:30:30.714Z,12.10
2024-04-11T02:32:33.360Z,12.10
2024-04-11T02:34:35.504Z,12.00
2024-04-11T02:36:37.554Z,12.00
2024-04-11T02:38:39.755Z,11.90
2024-04-11T02:40:41.735Z,11.80
2024-04-11T02:42:44.409Z,11.90
2024-04-11T02:44:48.444Z,11.90
2024-04-11T02:46:50.636Z,11.90
2024-04-11T02:48:52.981Z,11.90
2024-04-11T02:50:56.366Z,12.00
2024-04-11T02:52:58.309Z,11.90
2024-04-11T02:55:00.220Z,11.80
2024-04-11T02:57:02.264Z,11.80
2024-04-11T02:59:05.991Z,11.80
2024-04-11T03:01:10.176Z,11.90
2024-04-11T03:03:13.455Z,11.80
2024-04-11T03:05:17.666Z,11.90
2024-04-11T03:07:22.733Z,12.00
2024-04-11T03:09:24.662Z,11.80
2024-04-11T03:11:26.814Z,11.60
2024-04-11T03:13:29.478Z,11.70
2024-04-11T03:15:32.244Z,11.60
2024-04-11T03:17:35.033Z,11.60
2024-04-11T03:19:37.077Z,11.70
2024-04-11T03:21:38.961Z,11.70
2024-04-11T03:23:40.923Z,11.60
2024-04-11T03:25:42.882Z,11.70
2024-04-11T03:27:44.801Z,11.70
2024-04-11T03:29:47.060Z,11.70
2024-04-11T03:31:49.050Z,11.70
2024-04-11T03:33:53.048Z,11.70
2024-04-11T03:35:59.217Z,11.80
2024-04-11T03:38:01.343Z,11.80
2024-04-11T03:40:05.276Z,11.80
2024-04-11T03:42:09.361Z,11.80
2024-04-11T03:44:12.175Z,11.90
2024-04-11T03:46:25.797Z,11.90
2024-04-11T03:48:28.126Z,12.00
2024-04-11T03:50:31.085Z,12.10
2024-04-11T03:52:33.056Z,12.00
2024-04-11T03:54:34.944Z,12.00
2024-04-11T03:56:37.328Z,12.10
2024-04-11T03:58:39.517Z,12.20
2024-04-11T04:00:41.413Z,12.20
2024-04-11T04:02:43.398Z,12.30
2024-04-11T04:04:45.551Z,12.50
2024-04-11T04:06:47.601Z,12.70
2024-04-11T04:08:50.361Z,12.70
2024-04-11T04:10:52.321Z,12.70
2024-04-11T04:12:59.097Z,12.90
2024-04-11T04:15:01.219Z,12.90
2024-04-11T04:17:03.331Z,13.00
2024-04-11T04:19:05.407Z,13.10
2024-04-11T04:21:09.139Z,13.20
2024-04-11T04:23:11.852Z,13.40
2024-04-11T04:25:16.169Z,13.50
2024-04-11T04:27:18.504Z,13.50
2024-04-11T04:29:20.632Z,13.70
2024-04-11T04:31:23.547Z,13.70
2024-04-11T04:33:25.572Z,13.80
2024-04-11T04:35:30.409Z,13.90
2024-04-11T04:37:32.323Z,13.90
2024-04-11T04:39:42.439Z,14.00
2024-04-11T04:41:44.831Z,14.00
2024-04-11T04:43:53.314Z,14.20
2024-04-11T04:45:58.847Z,14.30
2024-04-11T04:48:04.214Z,14.30
2024-04-11T04:50:07.552Z,14.50
2024-04-11T04:52:09.493Z,14.60
2024-04-11T04:54:13.647Z,14.70
2024-04-11T04:56:16.129Z,14.70
2024-04-11T04:58:18.065Z,14.90
2024-04-11T05:00:20.871Z,14.90
2024-04-11T05:02:25.650Z,14.90
2024-04-11T05:04:31.193Z,14.90
2024-04-11T05:06:33.869Z,15.00
2024-04-11T05:08:35.927Z,15.20
2024-04-11T05:10:39.387Z,15.20
2024-04-11T05:12:49.700Z,15.30
2024-04-11T05:14:54.123Z,15.50
2024-04-11T05:16:57.388Z,15.60
2024-04-11T05:18:59.931Z,15.70
2024-04-11T05:21:03.068Z,15.90
2024-04-11T05:23:07.774Z,16.00
2024-04-11T05:25:09.677Z,16.10
2024-04-11T05:27:12.961Z,16.20
2024-04-11T05:29:15.661Z,16.30
2024-04-11T05:31:25.131Z,16.50
2024-04-11T05:33:27.228Z,16.60
2024-04-11T05:35:32.015Z,16.70
2024-04-11T05:37:34.713Z,16.90
2024-04-11T05:39:36.618Z,16.90
2024-04-11T05:41:39.517Z,16.90
2024-04-11T05:43:45.271Z,17.10
2024-04-11T05:45:47.150Z,17.20
2024-04-11T05:47:49.402Z,17.50
2024-04-11T05:49:51.364Z,17.60
2024-04-11T05:51:53.273Z,17.70
2024-04-11T05:53:55.252Z,17.70
2024-04-11T05:55:57.981Z,17.60
2024-04-11T05:57:59.876Z,17.80
2024-04-11T06:00:01.955Z,17.70
2024-04-11T06:02:04.633Z,17.90
2024-04-11T06:04:08.472Z,18.10
2024-04-11T06:06:14.631Z,18.10
2024-04-11T06:08:16.669Z,18.30
2024-04-11T06:10:21.742Z,18.40
2024-04-11T06:12:23.845Z,18.40
2024-04-11T06:14:25.926Z,18.60
2024-04-11T06:16:27.962Z,18.60
2024-04-11T06:18:31.821Z,18.70
2024-04-11T06:20:33.929Z,18.90
2024-04-11T06:22:37.034Z,19.00
2024-04-11T06:24:39.304Z,19.10
2024-04-11T06:26:41.224Z,19.30
2024-04-11T06:28:43.219Z,19.40
2024-04-11T06:30:48.644Z,19.60
2024-04-11T06:32:50.772Z,19.80
2024-04-11T06:34:54.554Z,19.90
2024-04-11T06:36:57.473Z,20.00
2024-04-11T06:39:00.858Z,20.20
2024-04-11T06:41:04.143Z,20.30
2024-04-11T06:43:09.441Z,20.50
2024-04-11T06:45:15.938Z,20.60
2024-04-11T06:47:27.954Z,20.90
2024-04-11T06:49:36.484Z,21.00
2024-04-11T06:51:38.896Z,21.10
2024-04-11T06:53:40.941Z,21.20
2024-04-11T06:55:47.276Z,21.30
2024-04-11T06:57:49.185Z,21.40
2024-04-11T06:59:52.245Z,21.60
2024-04-11T07:01:55.229Z,21.70
2024-04-11T07:04:08.366Z,22.00
2024-04-11T07:06:22.900Z,22.10
2024-04-11T07:08:32.962Z,22.30
2024-04-11T07:10:37.854Z,22.40
2024-04-11T07:12:42.563Z,22.50
2024-04-11T07:14:46.038Z,22.70
2024-04-11T07:16:54.024Z,22.80
2024-04-11T07:18:56.799Z,22.90
2024-04-11T07:21:02.687Z,22.80
2024-04-11T07:23:08.699Z,22.70
2024-04-11T07:25:10.626Z,22.90
2024-04-11T07:27:18.608Z,22.90
2024-04-11T07:29:24.012Z,23.00
2024-04-11T07:31:26.484Z,23.10
2024-04-11T07:33:43.256Z,23.30
2024-04-11T07:35:46.355Z,23.20
2024-04-11T07:37:48.523Z,23.30
2024-04-11T07:39:50.927Z,23.30
2024-04-11T07:42:02.422Z,23.60
2024-04-11T07:44:07.006Z,23.70
2024-04-11T07:46:10.335Z,23.70
2024-04-11T07:48:16.406Z,23.80
2024-04-11T07:50:22.730Z,23.80
2024-04-11T07:52:24.696Z,24.00
2024-04-11T07:54:37.129Z,24.10
2024-04-11T07:56:42.925Z,24.10
2024-04-11T07:58:44.921Z,24.10
2024-04-11T08:00:51.450Z,24.20
2024-04-11T08:02:57.676Z,24.40
2024-04-11T08:04:59.711Z,24.50
2024-04-11T08:07:01.660Z,24.50
2024-04-11T08:09:09.547Z,24.60
2024-04-11T08:11:11.855Z,24.80
2024-04-11T08:13:15.201Z,24.80
2024-04-11T08:15:17.111Z,25.00
2024-04-11T08:17:19.393Z,25.00
2024-04-11T08:19:21.333Z,24.90
2024-04-11T08:21:23.442Z,25.00
2024-04-11T08:23:26.865Z,25.10
2024-04-11T08:25:28.886Z,25.30
2024-04-11T08:27:30.790Z,25.10
2024-04-11T08:29:32.728Z,24.90
2024-04-11T08:31:36.046Z,25.10
2024-04-11T08:33:38.670Z,25.10
2024-04-11T08:35:41.653Z,24.90
2024-04-11T08:37:43.578Z,25.10
2024-04-11T08:39:45.784Z,25.30
2024-04-11T08:41:52.917Z,25.70
2024-04-11T08:43:57.930Z,25.40
2024-04-11T08:45:59.983Z,25.30
2024-04-11T08:48:03.298Z,25.30
2024-04-11T08:50:07.459Z,25.50
2024-04-11T08:52:13.196Z,25.60
2024-04-11T08:54:16.647Z,25.50
2024-04-11T08:56:18.628Z,25.30
2024-04-11T08:58:20.599Z,25.70
2024-04-11T09:00:23.368Z,25.70
2024-04-11T09:02:25.396Z,25.70
2024-04-11T09:04:27.394Z,25.70
2024-04-11T09:06:31.551Z,25.70
2024-04-11T09:08:34.132Z,25.90
2024-04-11T09:10:37.098Z,25.90
2024-04-11T09:12:43.551Z,25.80
2024-04-11T09:14:45.705Z,25.70
2024-04-11T09:16:47.811Z,25.90
2024-04-11T09:19:01.907Z,25.80
2024-04-11T09:21:07.475Z,25.70
2024-04-11T09:23:15.936Z,25.70
2024-04-11T09:25:24.059Z,25.80
2024-04-11T09:27:27.331Z,26.10
2024-04-11T09:29:31.147Z,26.00
2024-04-11T09:31:33.723Z,25.90
2024-04-11T09:33:36.520Z,25.70
2024-04-11T09:35:42.886Z,25.80
2024-04-11T09:37:45.889Z,25.90
2024-04-11T09:39:49.768Z,26.10
2024-04-11T09:41:58.035Z,26.10
2024-04-11T09:44:02.461Z,26.20
2024-04-11T09:46:07.930Z,26.30
2024-04-11T09:48:13.808Z,26.20
2024-04-11T09:50:17.661Z,26.40
2024-04-11T09:52:19.796Z,26.10
2024-04-11T09:54:23.714Z,26.10
2024-04-11T09:56:25.709Z,26.10
2024-04-11T09:58:31.310Z,26.20
2024-04-11T10:00:52.155Z,26.40
2024-04-11T10:02:54.756Z,26.30
2024-04-11T10:04:57.475Z,26.30
2024-04-11T10:07:05.514Z,26.40
2024-04-11T10:09:13.370Z,26.30
2024-04-11T10:11:19.743Z,26.40
2024-04-11T10:13:23.176Z,26.40
2024-04-11T10:15:30.664Z,26.60
2024-04-11T10:17:37.669Z,26.40
2024-04-11T10:19:40.266Z,26.50
2024-04-11T10:21:53.524Z,26.30
2024-04-11T10:23:59.494Z,26.40
2024-04-11T10:26:16.133Z,26.60
2024-04-11T10:28:21.666Z,26.90
2024-04-11T10:30:24.874Z,27.00
2024-04-11T10:32:37.635Z,27.10
2024-04-11T10:34:46.561Z,27.00
2024-04-11T10:36:56.118Z,27.00
2024-04-11T10:38:59.442Z,27.10
2024-04-11T10:41:02.921Z,27.00
2024-04-11T10:43:14.132Z,26.80
2024-04-11T10:45:19.383Z,26.80
2024-04-11T10:47:23.044Z,26.90
2024-04-11T10:49:29.837Z,27.20
2024-04-11T10:51:31.843Z,26.90
2024-04-11T10:53:35.253Z,26.90
2024-04-11T10:55:37.675Z,27.10
2024-04-11T10:57:50.898Z,27.00
2024-04-11T10:59:52.942Z,26.90
2024-04-11T11:02:10.327Z,27.00
2024-04-11T11:04:16.350Z,26.90
2024-04-11T11:06:41.247Z,26.60
2024-04-11T11:08:46.441Z,26.30
2024-04-11T11:10:48.430Z,26.80
2024-04-11T11:12:53.541Z,27.00
2024-04-11T11:14:55.659Z,26.80
2024-04-11T11:17:03.241Z,26.90
2024-04-11T11:19:13.194Z,27.00
2024-04-11T11:21:17.857Z,27.20
2024-04-11T11:23:27.592Z,27.10
2024-04-11T11:25:30.820Z,27.00
2024-04-11T11:27:35.647Z,27.10
2024-04-11T11:29:43.577Z,27.20
2024-04-11T11:31:51.660Z,27.10
2024-04-11T11:33:55.185Z,27.30
2024-04-11T11:35:57.298Z,27.40
2024-04-11T11:37:59.281Z,27.20
2024-04-11T11:40:19.998Z,27.10
2024-04-11T11:42:27.715Z,27.50
2024-04-11T11:44:42.458Z,27.70
2024-04-11T11:46:51.280Z,27.60
2024-04-11T11:48:53.435Z,27.60
2024-04-11T11:50:55.436Z,27.60
2024-04-11T11:52:57.572Z,27.50
2024-04-11T11:54:59.929Z,27.60
2024-04-11T11:57:10.859Z,27.60
2024-04-11T11:59:12.854Z,27.20
2024-04-11T12:01:29.749Z,27.10
2024-04-11T12:05:41.286Z,27.50
2024-04-11T12:07:46.036Z,27.30
2024-04-11T12:10:08.638Z,27.10
2024-04-11T12:12:22.640Z,27.30
2024-04-11T12:14:30.684Z,27.70
2024-04-11T12:16:41.171Z,27.60
2024-04-11T12:18:44.130Z,27.50
2024-04-11T12:20:46.085Z,27.70
2024-04-11T12:22:50.987Z,27.70
2024-04-11T12:24:53.818Z,27.70
2024-04-11T12:27:00.838Z,27.80
2024-04-11T12:29:05.633Z,27.70
2024-04-11T12:31:13.371Z,27.40
2024-04-11T12:33:17.896Z,27.60
2024-04-11T12:35:20.433Z,27.60
2024-04-11T12:37:26.470Z,27.40
2024-04-11T12:39:35.375Z,27.10
2024-04-11T12:41:37.995Z,27.30
2024-04-11T12:43:40.326Z,27.60
2024-04-11T12:45:53.372Z,27.50
2024-04-11T12:48:01.015Z,27.20
2024-04-11T12:50:06.605Z,27.10
2024-04-11T12:52:08.564Z,27.10
2024-04-11T12:54:17.274Z,27.30
2024-04-11T12:56:24.645Z,27.60
2024-04-11T12:58:27.451Z,27.60
2024-04-11T13:00:44.725Z,27.70
2024-04-11T13:02:50.030Z,27.80
2024-04-11T13:04:56.337Z,27.40
2024-04-11T13:07:12.131Z,27.60
2024-04-11T13:09:32.688Z,27.60
2024-04-11T13:11:49.858Z,27.70
2024-04-11T13:13:54.106Z,27.40
2024-04-11T13:16:01.233Z,27.80
2024-04-11T13:18:03.340Z,27.50
2024-04-11T13:20:16.010Z,27.30
2024-04-11T13:22:18.077Z,27.30
2024-04-11T13:24:26.009Z,27.40
2024-04-11T13:26:28.008Z,27.50
2024-04-11T13:28:30.412Z,27.50
2024-04-11T13:30:32.974Z,27.70
2024-04-11T13:32:35.008Z,27.60
2024-04-11T13:34:41.847Z,27.90
2024-04-11T13:36:46.669Z,28.10
2024-04-11T13:38:50.975Z,29.00
2024-04-11T13:41:13.218Z,30.10
2024-04-11T13:43:18.700Z,30.30
2024-04-11T13:45:23.779Z,30.90
2024-04-11T13:47:27.360Z,30.10
2024-04-11T13:49:39.049Z,30.90
2024-04-11T13:51:46.303Z,30.80
2024-04-11T13:53:57.355Z,31.70
2024-04-11T13:55:59.415Z,31.20
2024-04-11T13:58:01.347Z,32.30
2024-04-11T14:00:10.710Z,32.70
2024-04-11T14:02:31.921Z,32.10
2024-04-11T14:04:48.439Z,31.70
2024-04-11T14:06:50.458Z,31.30
2024-04-11T14:08:54.129Z,30.90
2024-04-11T14:10:57.929Z,30.90
2024-04-11T14:13:00.077Z,30.60
2024-04-11T14:15:06.187Z,31.40
2024-04-11T14:17:15.187Z,31.90
2024-04-11T14:19:37.801Z,32.20
2024-04-11T14:21:54.871Z,32.40
2024-04-11T14:24:19.693Z,32.80
2024-04-11T14:26:37.007Z,30.90
2024-04-11T14:28:45.409Z,30.10
2024-04-11T14:30:56.286Z,30.70
2024-04-11T14:33:11.388Z,30.70
2024-04-11T14:35:33.535Z,30.00
2024-04-11T14:37:55.891Z,30.00
2024-04-11T14:39:57.865Z,30.30
2024-04-11T14:41:59.924Z,28.90
2024-04-11T14:44:09.843Z,29.40
2024-04-11T14:46:14.779Z,30.40
2024-04-11T14:48:35.445Z,30.00
2024-04-11T14:50:38.145Z,30.50
2024-04-11T14:52:43.760Z,30.90
2024-04-11T14:54:47.798Z,32.30
2024-04-11T14:56:50.083Z,31.10
2024-04-11T14:58:55.367Z,31.70
2024-04-11T15:01:01.433Z,32.00
2024-04-11T15:03:03.828Z,31.80
2024-04-11T15:05:12.251Z,31.80
2024-04-11T15:07:15.112Z,31.10
2024-04-11T15:09:30.575Z,31.40
2024-04-11T15:11:34.705Z,30.30
2024-04-11T15:13:36.639Z,28.90
2024-04-11T15:15:42.907Z,29.10
2024-04-11T15:18:01.519Z,29.00
2024-04-11T15:20:11.478Z,30.10
2024-04-11T15:22:13.678Z,30.50
2024-04-11T15:24:19.683Z,30.30
2024-04-11T15:26:28.754Z,30.60
2024-04-11T15:28:33.184Z,30.30
2024-04-11T15:30:50.812Z,29.80
2024-04-11T15:32:57.602Z,29.40
2024-04-11T15:35:08.546Z,28.80
2024-04-11T15:37:30.216Z,27.90
2024-04-11T15:39:33.933Z,27.60
2024-04-11T15:41:40.691Z,27.70
2024-04-11T15:43:43.812Z,27.80
2024-04-11T15:46:06.203Z,27.80
2024-04-11T15:48:08.364Z,27.60
2024-04-11T15:50:17.314Z,28.00
2024-04-11T15:52:29.943Z,28.00
2024-04-11T15:54:38.979Z,27.60
2024-04-11T15:56:45.058Z,27.30
2024-04-11T15:58:58.922Z,27.20
2024-04-11T16:01:06.021Z,27.20
2024-04-11T16:03:16.638Z,27.10
2024-04-11T16:05:29.251Z,27.20
2024-04-11T16:07:37.135Z,27.00
2024-04-11T16:09:47.684Z,26.80
2024-04-11T16:11:49.768Z,26.50
2024-04-11T16:13:57.661Z,26.40
2024-04-11T16:16:00.098Z,26.30
2024-04-11T16:18:03.063Z,26.10
2024-04-11T16:20:07.275Z,25.70
2024-04-11T16:22:12.745Z,25.40
2024-04-11T16:24:14.893Z,25.20
2024-04-11T16:26:16.886Z,24.90
2024-04-11T16:28:18.934Z,24.80
2024-04-11T16:30:52.886Z,24.50
2024-04-11T16:32:55.261Z,24.50
2024-04-11T16:34:59.756Z,24.30
2024-04-11T16:37:07.342Z,24.10
2024-04-11T16:39:27.994Z,24.00
2024-04-11T16:41:39.445Z,23.90
2024-04-11T16:43:41.711Z,23.80
2024-04-11T16:45:43.640Z,23.80
2024-04-11T16:47:48.706Z,23.70
2024-04-11T16:49:54.786Z,23.60
2024-04-11T16:51:56.780Z,23.60
2024-04-11T16:54:18.966Z,23.60
2024-04-11T16:56:29.550Z,23.40
2024-04-11T16:58:48.335Z,23.40
2024-04-11T17:00:50.333Z,23.30
2024-04-11T17:02:52.400Z,23.30
2024-04-11T17:04:57.061Z,23.30
2024-04-11T17:07:06.218Z,23.10
2024-04-11T17:09:12.711Z,23.00
2024-04-11T17:11:22.579Z,23.00
2024-04-11T17:13:24.742Z,22.90
2024-04-11T17:15:26.824Z,22.80
2024-04-11T17:17:38.601Z,22.80
2024-04-11T17:19:43.912Z,22.60
2024-04-11T17:21:55.774Z,22.60
2024-04-11T17:24:05.750Z,22.70
2024-04-11T17:26:13.464Z,22.50
2024-04-11T17:28:20.671Z,22.60
2024-04-11T17:30:25.838Z,22.50
2024-04-11T17:32:42.576Z,22.50
2024-04-11T17:34:47.462Z,22.50
2024-04-11T17:36:50.636Z,22.40
2024-04-11T17:39:05.299Z,22.30
2024-04-11T17:41:29.514Z,22.20
2024-04-11T17:43:36.994Z,22.20
2024-04-11T17:45:38.921Z,22.10
2024-04-11T17:47:45.248Z,22.10
2024-04-11T17:49:57.772Z,22.00
2024-04-11T17:52:00.528Z,21.90
2024-04-11T17:54:06.438Z,21.80
2024-04-11T17:56:10.935Z,21.80
2024-04-11T17:58:13.154Z,21.60
2024-04-11T18:00:15.191Z,21.60
2024-04-11T18:02:23.153Z,21.60
2024-04-11T18:04:25.774Z,21.60
2024-04-11T18:06:42.930Z,21.50
2024-04-11T18:08:48.857Z,21.60
2024-04-11T18:10:59.883Z,21.50
2024-04-11T18:13:02.731Z,21.50
2024-04-11T18:15:09.803Z,21.40
2024-04-11T18:17:12.167Z,21.40
2024-04-11T18:19:16.350Z,21.20
2024-04-11T18:21:20.235Z,21.20
2024-04-11T18:23:26.289Z,21.00
2024-04-11T18:25:50.190Z,21.00
2024-04-11T18:27:52.989Z,21.00
2024-04-11T18:30:02.113Z,20.90
2024-04-11T18:32:06.196Z,20.80
2024-04-11T18:34:09.089Z,20.90
2024-04-11T18:36:25.337Z,20.80
2024-04-11T18:38:28.937Z,20.80
2024-04-11T18:40:31.033Z,21.00
2024-04-11T18:42:38.725Z,21.10
2024-04-11T18:44:51.862Z,21.00
2024-04-11T18:46:58.031Z,20.90
2024-04-11T18:49:02.237Z,20.90
2024-04-11T18:51:05.734Z,20.80
2024-04-11T18:53:09.119Z,20.70
2024-04-11T18:55:13.324Z,20.60
2024-04-11T18:57:15.315Z,20.40
2024-04-11T18:59:23.089Z,20.20
2024-04-11T19:01:28.497Z,20.00
2024-04-11T19:03:31.512Z,19.70
2024-04-11T19:05:34.643Z,19.70
2024-04-11T19:07:37.144Z,19.60
2024-04-11T19:12:18.352Z,19.70
2024-04-11T19:14:22.389Z,19.70
2024-04-11T19:16:27.022Z,19.60
2024-04-11T19:18:29.189Z,19.50
2024-04-11T19:20:32.553Z,19.40
2024-04-11T19:22:39.339Z,19.50
2024-04-11T19:24:46.050Z,19.50
2024-04-11T19:26:52.572Z,19.40
2024-04-11T19:28:57.072Z,19.20
2024-04-11T19:30:59.946Z,19.10
2024-04-11T19:33:02.469Z,19.10
2024-04-11T19:35:07.349Z,19.00
2024-04-11T19:37:13.144Z,19.10
2024-04-11T19:39:21.067Z,19.10
2024-04-11T19:41:28.922Z,19.20
2024-04-11T19:43:33.013Z,19.10
2024-04-11T19:45:37.658Z,19.10
2024-04-11T19:47:44.561Z,19.10
2024-04-11T19:50:02.587Z,19.00
2024-04-11T19:52:06.668Z,19.00
2024-04-11T19:54:08.588Z,19.00
2024-04-11T19:56:19.665Z,18.90
2024-04-11T19:58:25.343Z,18.80
2024-04-11T20:00:48.498Z,18.90
2024-04-11T20:02:59.241Z,18.70
2024-04-11T20:05:03.503Z,18.60
2024-04-11T20:07:07.816Z,18.50
2024-04-11T20:09:14.350Z,18.50
2024-04-11T20:11:24.420Z,18.40
2024-04-11T20:13:45.063Z,18.30
2024-04-11T20:15:47.316Z,18.30
2024-04-11T20:17:57.580Z,18.30
2024-04-11T20:20:06.011Z,18.20
2024-04-11T20:22:07.954Z,18.10
2024-04-11T20:24:13.265Z,18.10
2024-04-11T20:26:18.777Z,18.10
2024-04-11T20:28:28.317Z,18.10
2024-04-11T20:30:33.837Z,18.10
2024-04-11T20:32:36.167Z,18.10
2024-04-11T20:34:39.814Z,18.10
2024-04-11T20:36:46.170Z,18.10
2024-04-11T20:38:53.405Z,18.10
2024-04-11T20:41:05.519Z,18.10
2024-04-11T20:43:20.328Z,18.10
2024-04-11T20:45:30.511Z,18.00
2024-04-11T20:47:49.629Z,18.00
2024-04-11T20:50:11.688Z,18.00
2024-04-11T20:52:32.902Z,18.00
2024-04-11T20:54:53.581Z,17.90
2024-04-11T20:57:14.361Z,17.90
2024-04-11T20:59:36.097Z,17.90
2024-04-11T21:01:56.960Z,17.90
2024-04-11T21:04:17.532Z,17.90
2024-04-11T21:06:38.420Z,17.80
2024-04-11T21:08:59.178Z,17.80
2024-04-11T21:11:19.934Z,17.70
2024-04-11T21:13:40.647Z,17.70
2024-04-11T21:16:05.659Z,17.60
2024-04-11T21:18:26.439Z,17.60
2024-04-11T21:20:47.090Z,17.60
2024-04-11T21:23:07.761Z,17.60
2024-04-11T21:25:28.495Z,17.60
2024-04-11T21:27:49.122Z,17.60
2024-04-11T21:30:10.015Z,17.50
2024-04-11T21:32:30.535Z,17.50
2024-04-11T21:34:33.943Z,17.40
2024-04-11T21:36:35.854Z,17.40
2024-04-11T21:38:42.078Z,17.30
2024-04-11T21:40:44.659Z,17.30
2024-04-11T21:42:53.346Z,17.20
2024-04-11T21:48:18.941Z,17.30
2024-04-11T21:50:22.810Z,17.20
2024-04-11T21:52:29.025Z,17.10
2024-04-11T21:54:31.105Z,17.10
2024-04-11T21:56:33.576Z,17.00
2024-04-11T21:58:36.019Z,17.10
2024-04-11T22:01:02.771Z,17.00
2024-04-11T22:03:08.943Z,17.00
2024-04-11T22:05:20.594Z,17.00
2024-04-11T22:07:22.880Z,16.90
2024-04-11T22:09:26.242Z,16.90
2024-04-11T22:11:28.422Z,16.90
2024-04-11T22:13:38.224Z,16.80
2024-04-11T22:15:40.413Z,16.80
2024-04-11T22:17:42.374Z,16.80
2024-04-11T22:19:44.464Z,16.80
2024-04-11T22:21:52.103Z,16.70
2024-04-11T22:23:54.101Z,16.70
2024-04-11T22:25:56.052Z,16.70
2024-04-11T22:28:02.730Z,16.70
2024-04-11T22:30:07.962Z,16.70
2024-04-11T22:32:13.472Z,16.60
2024-04-11T22:34:25.692Z,16.60
2024-04-11T22:36:35.513Z,16.60
2024-04-11T22:38:39.241Z,16.60
2024-04-11T22:40:44.144Z,16.50
2024-04-11T22:42:54.382Z,16.50
2024-04-11T22:45:06.464Z,16.50
2024-04-11T22:47:08.565Z,16.50
2024-04-11T22:49:17.228Z,16.40
2024-04-11T22:51:19.687Z,16.40
2024-04-11T22:53:25.391Z,16.40
2024-04-11T22:55:28.287Z,16.30
2024-04-11T22:57:30.472Z,16.30
2024-04-11T22:59:35.814Z,16.30
2024-04-11T23:01:58.138Z,16.20
2024-04-11T23:04:00.102Z,16.20
2024-04-11T23:06:02.333Z,16.20
2024-04-11T23:08:07.361Z,16.10
2024-04-11T23:10:19.100Z,16.10
2024-04-11T23:12:21.824Z,16.10
2024-04-11T23:14:23.742Z,16.10
2024-04-11T23:16:36.501Z,16.10
2024-04-11T23:18:43.643Z,16.00
2024-04-11T23:20:46.045Z,16.00
2024-04-11T23:22:47.992Z,16.10
2024-04-11T23:24:59.381Z,16.00
2024-04-11T23:27:01.482Z,16.00
2024-04-11T23:29:10.121Z,16.00
2024-04-11T23:31:12.063Z,15.90
2024-04-11T23:33:22.440Z,15.90
2024-04-11T23:35:30.274Z,15.80
2024-04-11T23:37:32.884Z,15.80
2024-04-11T23:39:38.761Z,15.80
2024-04-11T23:41:51.238Z,15.70
2024-04-11T23:43:56.665Z,15.70
2024-04-11T23:46:01.913Z,15.70
2024-04-11T23:48:04.322Z,15.70
2024-04-11T23:50:10.310Z,15.70
2024-04-11T23:52:12.368Z,15.60
2024-04-11T23:54:14.515Z,15.70
2024-04-11T23:56:16.431Z,15.60
2024-04-11T23:58:18.396Z,15.60
